Time;durP1;ratioP1;P1;durP2;ratioP2;P2;SDS_P1;SDS_P2;PMS_P1;PMS_P2;Temp;Humidity;BMP_temperature;BMP_pressure;BME280_temperature;BME280_humidity;BME280_pressure;Samples;Min_cycle;Max_cycle;Signal;HPM_P1;HPM_P2
2021/12/20 00:00:57;;;;;;;48.08;33.58;;;;;;;-2.04;100.00;96390.47;6176962;23;20430;-63
2021/12/20 00:03:23;;;;;;;43.95;34.03;;;;;;;-2.00;100.00;96381.72;6178159;23;20076;-63
2021/12/20 00:05:49;;;;;;;48.88;35.03;;;;;;;-2.06;100.00;96387.94;6177958;23;20054;-63
2021/12/20 00:08:14;;;;;;;50.45;36.03;;;;;;;-2.06;100.00;96381.94;6178851;23;20009;-62
2021/12/20 00:10:39;;;;;;;43.00;32.75;;;;;;;-2.12;100.00;96376.97;6177969;23;20001;-62
2021/12/20 00:13:05;;;;;;;42.95;31.05;;;;;;;-2.15;100.00;96375.31;6177680;23;20001;-62
2021/12/20 00:15:30;;;;;;;41.05;29.95;;;;;;;-2.17;100.00;96371.94;6177638;23;20005;-62
2021/12/20 00:17:56;;;;;;;43.92;34.03;;;;;;;-2.06;100.00;96374.19;6177137;23;20444;-63
2021/12/20 00:20:21;;;;;;;52.95;36.15;;;;;;;-1.90;99.78;96370.25;6178015;23;20005;-62
2021/12/20 00:22:47;;;;;;;48.22;34.17;;;;;;;-2.03;99.84;96374.94;6178293;23;20395;-62
2021/12/20 00:25:13;;;;;;;47.17;33.53;;;;;;;-2.17;100.00;96374.53;6178578;23;20001;-62
2021/12/20 00:27:39;;;;;;;45.65;32.63;;;;;;;-2.14;100.00;96376.19;6178316;23;20479;-62
2021/12/20 00:30:06;;;;;;;47.80;33.95;;;;;;;-2.25;100.00;96368.78;6177599;23;20009;-62
2021/12/20 00:32:31;;;;;;;50.05;37.15;;;;;;;-2.27;100.00;96363.63;6178068;23;20009;-62
2021/12/20 00:34:57;;;;;;;53.08;36.75;;;;;;;-2.19;100.00;96361.69;6177926;23;20035;-62
2021/12/20 00:40:20;;;;;;;49.20;33.80;;;;;;;-2.19;100.00;96353.09;6177722;23;20351;-62
2021/12/20 00:42:52;;;;;;;49.20;34.50;;;;;;;-2.21;100.00;96352.28;6177726;23;20472;-62
2021/12/20 00:45:19;;;;;;;46.33;34.97;;;;;;;-2.16;100.00;96345.25;6177636;23;20009;-62
2021/12/20 00:47:44;;;;;;;46.03;33.60;;;;;;;-2.23;100.00;96341.19;6177420;23;20150;-62
2021/12/20 00:50:11;;;;;;;46.33;33.10;;;;;;;-2.21;100.00;96334.25;6177875;23;20036;-62
2021/12/20 00:52:37;;;;;;;42.00;30.50;;;;;;;-2.23;100.00;96339.44;6178508;23;20055;-62
2021/12/20 00:55:03;;;;;;;41.28;31.45;;;;;;;-2.10;100.00;96328.75;6179213;23;20012;-62
2021/12/20 00:57:29;;;;;;;43.17;31.85;;;;;;;-2.18;100.00;96342.72;6178983;23;20529;-62
2021/12/20 00:59:54;;;;;;;43.10;32.50;;;;;;;-2.30;100.00;96348.25;6178887;23;20005;-62
2021/12/20 01:02:20;;;;;;;45.85;32.10;;;;;;;-2.27;100.00;96349.91;6178898;23;20029;-62
2021/12/20 01:04:46;;;;;;;49.85;33.47;;;;;;;-2.18;100.00;96345.31;6178812;23;20013;-62
2021/12/20 01:07:11;;;;;;;47.50;34.03;;;;;;;-2.16;100.00;96343.53;6177857;23;20072;-62
2021/12/20 01:09:37;;;;;;;47.50;35.03;;;;;;;-2.23;100.00;96343.75;6178926;23;20001;-62
2021/12/20 01:12:06;;;;;;;53.28;35.75;;;;;;;-2.24;100.00;96342.06;6178782;23;20001;-62
2021/12/20 01:14:34;;;;;;;50.55;33.88;;;;;;;-2.15;100.00;96344.34;6179057;23;20080;-62
2021/12/20 01:17:06;;;;;;;49.45;36.13;;;;;;;-2.19;100.00;96345.34;6178312;23;20000;-62
2021/12/20 01:19:33;;;;;;;49.50;35.72;;;;;;;-2.17;100.00;96347.00;6179359;23;20005;-62
2021/12/20 01:21:59;;;;;;;48.00;34.30;;;;;;;-2.27;100.00;96345.59;6178966;23;20013;-62
2021/12/20 01:24:24;;;;;;;47.65;33.53;;;;;;;-2.17;100.00;96340.97;6178928;23;20012;-62
2021/12/20 01:26:49;;;;;;;44.80;33.72;;;;;;;-2.13;100.00;96332.25;6178830;23;20001;-62
2021/12/20 01:29:15;;;;;;;45.35;33.70;;;;;;;-2.14;99.29;96329.72;6177238;23;20437;-62
2021/12/20 01:31:41;;;;;;;44.47;32.97;;;;;;;-2.21;100.00;96329.94;6178241;23;20051;-62
2021/12/20 01:34:06;;;;;;;45.83;33.72;;;;;;;-2.29;100.00;96336.22;6177828;23;20352;-62
2021/12/20 01:36:31;;;;;;;48.97;34.15;;;;;;;-2.34;100.00;96337.19;6178084;23;20001;-62
2021/12/20 01:38:57;;;;;;;44.50;32.65;;;;;;;-2.24;99.98;96334.34;6177945;23;20009;-62
2021/12/20 01:41:22;;;;;;;42.75;31.73;;;;;;;-2.32;99.75;96337.16;6178068;23;20012;-62
2021/12/20 01:43:48;;;;;;;42.42;31.75;;;;;;;-2.33;100.00;96340.63;6178220;23;20001;-62
2021/12/20 01:46:13;;;;;;;47.60;34.33;;;;;;;-2.17;99.71;96341.84;6178300;23;20020;-62
2021/12/20 01:48:41;;;;;;;43.15;31.83;;;;;;;-2.27;99.79;96334.44;6177909;23;20336;-62
2021/12/20 01:53:32;;;;;;;41.55;30.13;;;;;;;-2.27;100.00;96332.69;6178373;23;20009;-62
2021/12/20 01:55:58;;;;;;;47.53;33.00;;;;;;;-2.43;100.00;96332.31;6178215;23;20079;-62
2021/12/20 01:58:25;;;;;;;50.40;34.97;;;;;;;-2.36;100.00;96326.06;6151621;23;20330;-62
2021/12/20 02:03:34;;;;;;;47.42;33.90;;;;;;;-2.31;100.00;96324.22;6177796;23;20039;-62
2021/12/20 02:06:04;;;;;;;51.78;35.80;;;;;;;-2.38;100.00;96322.69;6178044;23;20012;-62
2021/12/20 02:08:29;;;;;;;49.30;34.30;;;;;;;-2.43;100.00;96322.00;6151551;23;20424;-62
2021/12/20 02:10:57;;;;;;;44.60;33.00;;;;;;;-2.33;100.00;96314.81;6177576;23;20001;-62
2021/12/20 02:13:27;;;;;;;44.58;32.05;;;;;;;-2.44;100.00;96322.91;6177848;23;20005;-62
2021/12/20 02:15:54;;;;;;;43.97;30.27;;;;;;;-2.39;100.00;96323.59;6177892;23;20534;-63
2021/12/20 02:18:21;;;;;;;45.22;33.40;;;;;;;-2.57;100.00;96322.41;6176806;23;20034;-62
2021/12/20 02:20:46;;;;;;;44.40;32.33;;;;;;;-2.50;100.00;96323.09;6178248;23;20057;-62
2021/12/20 02:23:12;;;;;;;45.38;32.10;;;;;;;-2.47;100.00;96323.00;6179167;23;20348;-62
2021/12/20 02:25:38;;;;;;;41.47;30.75;;;;;;;-2.59;100.00;96324.22;6178982;23;20016;-62
2021/12/20 02:28:11;;;;;;;43.75;30.77;;;;;;;-2.65;100.00;96324.41;6178932;23;20009;-62
2021/12/20 02:38:35;;;;;;;46.85;31.45;;;;;;;-2.67;100.00;96321.84;6178969;23;20043;-62
2021/12/20 02:41:09;;;;;;;46.30;33.13;;;;;;;-2.68;100.00;96315.00;6179054;23;20545;-62
2021/12/20 02:43:42;;;;;;;45.58;32.42;;;;;;;-2.39;100.00;96321.00;6179090;23;20009;-62
2021/12/20 02:49:10;;;;;;;49.92;32.05;;;;;;;-2.47;100.00;96318.66;6179343;23;20013;-62
2021/12/20 02:51:36;;;;;;;45.75;32.90;;;;;;;-2.51;100.00;96321.41;6178771;23;20008;-62
2021/12/20 02:54:04;;;;;;;50.42;34.03;;;;;;;-2.58;100.00;96313.00;6179263;23;20013;-62
2021/12/20 02:56:29;;;;;;;50.38;35.20;;;;;;;-2.59;100.00;96309.56;6177983;23;20501;-62
2021/12/20 02:58:55;;;;;;;43.65;31.42;;;;;;;-2.58;100.00;96315.59;6179015;23;20009;-62
2021/12/20 03:01:21;;;;;;;45.30;33.40;;;;;;;-2.72;100.00;96300.53;6178767;23;20001;-62
2021/12/20 03:03:48;;;;;;;47.80;34.00;;;;;;;-2.81;100.00;96308.50;6178709;23;20024;-62
2021/12/20 03:06:21;;;;;;;45.28;32.53;;;;;;;-2.81;100.00;96305.94;6178979;23;20005;-61
2021/12/20 03:08:50;;;;;;;46.20;33.38;;;;;;;-2.83;100.00;96305.13;6178818;23;20421;-62
2021/12/20 03:11:17;;;;;;;47.80;34.13;;;;;;;-2.87;100.00;96304.41;6179040;23;20384;-62
2021/12/20 03:13:45;;;;;;;52.83;36.30;;;;;;;-2.87;100.00;96301.81;6178805;23;20005;-62
2021/12/20 03:16:11;;;;;;;48.47;34.13;;;;;;;-2.81;100.00;96300.78;6179053;23;20512;-62
2021/12/20 03:18:36;;;;;;;48.83;33.78;;;;;;;-2.85;100.00;96297.47;6178679;23;20078;-62
2021/12/20 03:21:01;;;;;;;48.83;32.85;;;;;;;-2.91;100.00;96289.91;6178810;23;20005;-62
2021/12/20 03:23:27;;;;;;;49.83;33.65;;;;;;;-2.89;100.00;96288.97;6178365;23;20095;-62
2021/12/20 03:25:52;;;;;;;47.00;32.35;;;;;;;-2.81;100.00;96293.06;6179143;23;20016;-62
2021/12/20 03:28:18;;;;;;;44.05;32.10;;;;;;;-2.77;100.00;96282.63;6178751;23;20091;-62
2021/12/20 03:30:44;;;;;;;53.35;34.88;;;;;;;-2.90;100.00;96292.44;6178339;23;20011;-62
2021/12/20 03:33:10;;;;;;;47.90;31.85;;;;;;;-2.90;100.00;96283.84;6178804;23;20368;-62
2021/12/20 03:35:35;;;;;;;51.83;35.75;;;;;;;-2.92;100.00;96280.47;6178843;22;20001;-62
2021/12/20 03:38:01;;;;;;;51.20;33.47;;;;;;;-2.83;100.00;96285.38;6178800;23;20001;-62
2021/12/20 03:40:26;;;;;;;46.90;32.13;;;;;;;-2.60;100.00;96284.66;6178293;23;20410;-62
2021/12/20 03:42:52;;;;;;;47.10;31.63;;;;;;;-2.77;100.00;96279.19;6178829;23;20085;-62
2021/12/20 03:45:17;;;;;;;40.85;29.45;;;;;;;-2.69;100.00;96282.38;6178841;23;20467;-61
2021/12/20 03:47:44;;;;;;;46.50;31.52;;;;;;;-2.46;100.00;96273.09;6179232;23;20017;-61
2021/12/20 03:50:12;;;;;;;43.95;29.77;;;;;;;-2.67;100.00;96270.28;6178736;23;20080;-62
2021/12/20 03:52:38;;;;;;;43.25;32.38;;;;;;;-2.75;100.00;96274.84;6178341;23;20071;-62
2021/12/20 03:55:08;;;;;;;45.72;32.25;;;;;;;-2.82;100.00;96263.00;6179103;23;20012;-62
2021/12/20 03:57:34;;;;;;;46.13;31.33;;;;;;;-2.80;100.00;96266.38;6178638;23;20001;-62
2021/12/20 04:00:00;;;;;;;47.38;33.15;;;;;;;-2.81;100.00;96259.53;6152340;23;20019;-62
2021/12/20 04:02:27;;;;;;;46.30;32.17;;;;;;;-2.71;100.00;96260.97;6151979;22;20029;-62
2021/12/20 04:04:53;;;;;;;45.80;32.95;;;;;;;-2.72;100.00;96261.88;6178606;23;20232;-62
2021/12/20 04:07:18;;;;;;;47.47;34.20;;;;;;;-2.71;100.00;96258.41;6178521;23;20095;-62
2021/12/20 04:09:44;;;;;;;46.50;34.72;;;;;;;-2.67;100.00;96249.66;6178254;23;20001;-62
2021/12/20 04:12:10;;;;;;;45.70;32.55;;;;;;;-2.64;100.00;96244.41;6152027;22;20001;-62
2021/12/20 04:14:36;;;;;;;51.50;32.55;;;;;;;-2.69;100.00;96256.59;6179097;23;20009;-62
2021/12/20 04:17:02;;;;;;;48.03;32.42;;;;;;;-2.64;100.00;96251.31;6178871;23;20028;-62
2021/12/20 04:19:27;;;;;;;46.28;33.53;;;;;;;-2.56;100.00;96253.63;6178543;22;20016;-62
2021/12/20 04:21:53;;;;;;;49.90;33.20;;;;;;;-2.64;100.00;96244.41;6178366;23;20006;-62
2021/12/20 04:24:18;;;;;;;47.63;33.42;;;;;;;-2.76;100.00;96247.38;6179244;23;20352;-61
2021/12/20 04:26:44;;;;;;;46.17;34.05;;;;;;;-2.80;100.00;96253.50;6178719;23;20085;-62
2021/12/20 04:29:09;;;;;;;49.40;34.97;;;;;;;-2.80;100.00;96258.66;6178387;23;20005;-62
2021/12/20 04:31:36;;;;;;;49.80;33.42;;;;;;;-2.76;100.00;96255.94;6178862;23;20000;-62
2021/12/20 04:34:03;;;;;;;47.65;32.17;;;;;;;-2.80;100.00;96251.78;6178524;23;20009;-62
2021/12/20 04:36:29;;;;;;;48.80;34.53;;;;;;;-2.77;100.00;96258.56;6178544;23;20036;-62
2021/12/20 04:38:55;;;;;;;46.45;32.40;;;;;;;-2.82;100.00;96255.28;6178525;23;20008;-62
2021/12/20 04:41:21;;;;;;;48.42;33.03;;;;;;;-2.81;100.00;96260.41;6178806;23;20433;-62
2021/12/20 04:43:46;;;;;;;53.78;35.10;;;;;;;-2.76;100.00;96260.28;6177972;23;20103;-62
2021/12/20 04:46:11;;;;;;;53.00;34.72;;;;;;;-2.77;100.00;96271.44;6178543;23;20028;-62
2021/12/20 04:48:37;;;;;;;54.35;34.35;;;;;;;-2.69;100.00;96261.75;6178169;23;20140;-63
2021/12/20 04:51:02;;;;;;;49.63;33.47;;;;;;;-2.74;100.00;96269.63;6178602;23;20005;-62
2021/12/20 04:53:28;;;;;;;49.80;32.40;;;;;;;-2.79;100.00;96265.50;6178503;23;20493;-62
2021/12/20 04:55:53;;;;;;;48.35;32.67;;;;;;;-2.60;100.00;96258.06;6178800;23;20072;-61
2021/12/20 04:58:19;;;;;;;52.33;34.25;;;;;;;-2.71;100.00;96263.56;6152405;23;20013;-62
2021/12/20 05:00:45;;;;;;;49.40;33.85;;;;;;;-2.61;100.00;96259.78;6178431;23;20566;-62
2021/12/20 05:03:10;;;;;;;48.67;31.10;;;;;;;-2.81;100.00;96259.53;6178278;23;20001;-62
2021/12/20 05:05:36;;;;;;;51.42;32.70;;;;;;;-2.85;100.00;96263.97;6178505;23;20012;-62
2021/12/20 05:08:03;;;;;;;45.70;31.95;;;;;;;-2.78;100.00;96254.28;6152085;23;20044;-62
2021/12/20 05:10:34;;;;;;;46.50;33.55;;;;;;;-2.72;100.00;96266.16;6178090;23;20609;-62
2021/12/20 05:13:03;;;;;;;48.92;34.03;;;;;;;-2.78;100.00;96264.59;6178056;23;20008;-62
2021/12/20 05:15:29;;;;;;;47.92;32.75;;;;;;;-2.82;100.00;96261.28;6152050;23;20036;-62
2021/12/20 05:17:56;;;;;;;46.95;31.52;;;;;;;-2.81;100.00;96264.69;6152298;23;20013;-62
2021/12/20 05:20:21;;;;;;;53.00;33.60;;;;;;;-2.82;100.00;96265.59;6178135;23;20344;-63
2021/12/20 05:22:48;;;;;;;49.95;35.58;;;;;;;-2.79;100.00;96257.75;6177402;23;20008;-62
2021/12/20 05:25:14;;;;;;;49.20;32.92;;;;;;;-2.64;100.00;96261.63;6178367;23;19998;-63
2021/12/20 05:27:39;;;;;;;52.47;33.85;;;;;;;-2.72;100.00;96264.44;6178039;23;20019;-62
2021/12/20 05:30:07;;;;;;;49.00;32.67;;;;;;;-2.83;100.00;96258.75;6152282;22;20005;-62
2021/12/20 05:32:32;;;;;;;49.58;32.90;;;;;;;-2.74;100.00;96268.81;6178204;22;20009;-62
2021/12/20 05:34:58;;;;;;;50.35;33.65;;;;;;;-2.81;100.00;96267.28;6178043;23;20019;-62
2021/12/20 05:37:24;;;;;;;54.92;33.03;;;;;;;-2.71;100.00;96279.00;6178307;23;20027;-62
2021/12/20 05:39:49;;;;;;;46.72;32.42;;;;;;;-2.78;100.00;96282.66;6177968;23;20349;-62
2021/12/20 05:42:15;;;;;;;51.75;33.17;;;;;;;-2.74;100.00;96281.69;6178382;23;20009;-62
2021/12/20 05:44:40;;;;;;;43.47;31.42;;;;;;;-2.74;100.00;96287.66;6177819;23;20076;-62
2021/12/20 05:47:06;;;;;;;49.78;30.20;;;;;;;-2.74;100.00;96286.84;6178322;22;20076;-62
2021/12/20 05:49:31;;;;;;;49.03;31.88;;;;;;;-2.80;100.00;96277.56;6177950;23;20001;-62
2021/12/20 05:51:58;;;;;;;45.33;31.65;;;;;;;-2.80;100.00;96276.69;6178024;22;20005;-62
2021/12/20 05:54:24;;;;;;;53.60;33.47;;;;;;;-2.79;100.00;96278.38;6177998;23;20441;-62
2021/12/20 05:56:49;;;;;;;51.92;37.40;;;;;;;-2.79;100.00;96280.97;6178074;23;20007;-62
2021/12/20 05:59:15;;;;;;;47.53;31.65;;;;;;;-2.77;100.00;96280.03;6177758;23;20412;-62
2021/12/20 06:01:40;;;;;;;52.03;34.00;;;;;;;-2.80;100.00;96280.13;6178114;23;20006;-62
2021/12/20 06:04:05;;;;;;;45.50;32.22;;;;;;;-2.74;100.00;96276.53;6177753;23;20009;-62
2021/12/20 06:06:32;;;;;;;48.15;31.40;;;;;;;-2.70;100.00;96274.69;6177918;23;20039;-62
2021/12/20 06:08:57;;;;;;;50.03;33.03;;;;;;;-2.76;100.00;96275.75;6177844;23;20012;-62
2021/12/20 06:11:24;;;;;;;51.30;34.22;;;;;;;-2.63;100.00;96278.78;6177710;23;20005;-62
2021/12/20 06:13:50;;;;;;;51.80;34.20;;;;;;;-2.68;100.00;96275.47;6177973;23;20032;-62
2021/12/20 06:16:15;;;;;;;47.30;32.08;;;;;;;-2.77;100.00;96281.75;6178048;23;20016;-62
2021/12/20 06:18:41;;;;;;;47.97;32.95;;;;;;;-2.62;100.00;96271.00;6177828;23;20012;-62
2021/12/20 06:21:06;;;;;;;52.70;33.78;;;;;;;-2.67;100.00;96283.19;6177325;23;20084;-62
2021/12/20 06:23:32;;;;;;;45.10;31.45;;;;;;;-2.72;100.00;96276.47;6178044;23;20012;-62
2021/12/20 06:25:57;;;;;;;48.60;32.75;;;;;;;-2.70;100.00;96275.53;6177786;23;20012;-62
2021/12/20 06:28:23;;;;;;;52.50;34.70;;;;;;;-2.59;100.00;96272.63;6177659;23;20012;-62
2021/12/20 06:30:48;;;;;;;48.42;31.83;;;;;;;-2.67;100.00;96265.13;6176521;23;20589;-63
2021/12/20 06:33:13;;;;;;;48.22;33.03;;;;;;;-2.74;100.00;96271.38;6151179;23;20012;-62
2021/12/20 06:35:39;;;;;;;52.67;34.80;;;;;;;-2.76;100.00;96263.69;6177185;23;20020;-62
2021/12/20 06:38:06;;;;;;;51.67;34.03;;;;;;;-2.81;100.00;96262.97;6177725;23;19998;-62
2021/12/20 06:40:34;;;;;;;46.63;32.78;;;;;;;-2.82;100.00;96270.75;6177115;23;20008;-62
2021/12/20 06:43:01;;;;;;;51.38;33.63;;;;;;;-2.84;100.00;96267.38;6177874;23;20480;-62
2021/12/20 06:45:30;;;;;;;42.95;31.77;;;;;;;-2.79;100.00;96270.66;6177024;23;20009;-62
2021/12/20 06:47:57;;;;;;;47.63;30.55;;;;;;;-2.80;100.00;96274.13;6177517;23;20028;-62
2021/12/20 06:50:22;;;;;;;46.03;31.05;;;;;;;-2.74;100.00;96269.63;6177684;23;20005;-62
2021/12/20 06:52:48;;;;;;;45.92;32.63;;;;;;;-2.75;100.00;96265.38;6177412;23;20016;-62
2021/12/20 06:55:13;;;;;;;43.13;31.13;;;;;;;-2.76;100.00;96275.75;6177572;23;20008;-62
2021/12/20 06:57:41;;;;;;;46.05;31.85;;;;;;;-2.79;100.00;96275.81;6177645;23;20429;-62
2021/12/20 07:00:07;;;;;;;45.95;29.77;;;;;;;-2.84;100.00;96273.38;6177019;23;20012;-62
2021/12/20 07:02:33;;;;;;;43.95;30.23;;;;;;;-2.88;100.00;96275.19;6177449;23;20080;-62
2021/12/20 07:04:58;;;;;;;47.80;31.10;;;;;;;-2.83;100.00;96276.78;6176966;23;20183;-62
2021/12/20 07:07:23;;;;;;;44.03;28.80;;;;;;;-2.85;100.00;96273.41;6152456;23;20009;-62
2021/12/20 07:09:49;;;;;;;47.65;31.77;;;;;;;-2.81;100.00;96275.88;6178420;23;20080;-63
2021/12/20 07:12:14;;;;;;;42.75;30.13;;;;;;;-2.88;100.00;96280.34;6178979;23;20004;-62
2021/12/20 07:14:40;;;;;;;44.63;30.10;;;;;;;-2.92;100.00;96280.47;6178675;23;20005;-62
2021/12/20 07:17:06;;;;;;;46.97;31.58;;;;;;;-2.89;100.00;96280.38;6178828;23;19997;-63
2021/12/20 07:19:31;;;;;;;44.00;29.55;;;;;;;-2.89;100.00;96276.09;6178690;23;20035;-62
2021/12/20 07:21:56;;;;;;;47.72;31.13;;;;;;;-2.87;100.00;96278.63;6152636;23;20442;-62
2021/12/20 07:24:22;;;;;;;59.72;43.78;;;;;;;-2.82;100.00;96284.50;6178898;23;20560;-63
2021/12/20 07:26:47;;;;;;;45.92;31.27;;;;;;;-2.84;100.00;96278.53;6178586;23;20013;-62
2021/12/20 07:29:13;;;;;;;44.22;28.67;;;;;;;-2.70;100.00;96280.69;6178429;23;20013;-62
2021/12/20 07:31:38;;;;;;;48.78;31.83;;;;;;;-2.78;100.00;96280.94;6178701;23;20080;-63
2021/12/20 07:34:07;;;;;;;44.67;29.58;;;;;;;-2.79;100.00;96283.53;6178938;23;20341;-63
2021/12/20 07:36:32;;;;;;;38.25;26.83;;;;;;;-2.83;100.00;96281.94;6178309;23;20005;-62
2021/12/20 07:38:59;;;;;;;43.42;27.75;;;;;;;-2.79;100.00;96286.97;6178660;23;20013;-63
2021/12/20 07:41:25;;;;;;;48.92;31.50;;;;;;;-2.78;100.00;96282.66;6178623;23;20084;-63
2021/12/20 07:43:51;;;;;;;53.35;34.65;;;;;;;-2.79;100.00;96286.13;6177886;23;20032;-62
2021/12/20 07:46:18;;;;;;;51.88;34.33;;;;;;;-2.78;100.00;96291.25;6178361;23;20057;-63
2021/12/20 07:48:43;;;;;;;52.42;34.65;;;;;;;-2.71;100.00;96286.75;6177354;23;20504;-64
2021/12/20 07:51:08;;;;;;;49.15;35.28;;;;;;;-2.65;100.00;96290.88;6178089;23;20033;-61
2021/12/20 07:53:34;;;;;;;58.45;37.20;;;;;;;-2.63;100.00;96283.94;6178798;23;20005;-62
2021/12/20 07:55:59;;;;;;;46.58;31.38;;;;;;;-2.69;100.00;96289.25;6177976;23;20124;-61
2021/12/20 07:58:25;;;;;;;52.20;33.72;;;;;;;-2.70;100.00;96285.84;6178241;23;20395;-61
2021/12/20 08:00:50;;;;;;;59.10;38.05;;;;;;;-2.67;100.00;96287.47;6178269;23;20005;-61
2021/12/20 08:03:16;;;;;;;48.47;34.30;;;;;;;-2.62;100.00;96289.03;6177688;23;20092;-62
2021/12/20 08:05:42;;;;;;;48.72;33.80;;;;;;;-2.64;100.00;96290.00;6178376;23;20570;-63
2021/12/20 08:08:08;;;;;;;48.40;30.98;;;;;;;-2.58;99.51;96284.63;6178926;23;20016;-63
2021/12/20 08:10:34;;;;;;;42.15;28.58;;;;;;;-2.64;100.00;96285.66;6179140;23;20333;-61
2021/12/20 08:12:59;;;;;;;39.92;27.55;;;;;;;-2.69;99.82;96286.69;6177544;23;20040;-62
2021/12/20 08:15:26;;;;;;;46.97;30.65;;;;;;;-2.69;99.78;96287.53;6177552;23;20001;-61
2021/12/20 08:17:53;;;;;;;46.13;30.90;;;;;;;-2.56;100.00;96292.31;6176649;23;20031;-61
2021/12/20 08:20:18;;;;;;;49.13;34.10;;;;;;;-2.63;99.44;96289.94;6178191;23;20463;-62
2021/12/20 08:22:44;;;;;;;42.83;30.00;;;;;;;-2.65;99.87;96289.13;6177940;22;20001;-61
2021/12/20 08:25:10;;;;;;;46.75;30.48;;;;;;;-2.67;99.61;96287.47;6177594;23;20024;-62
2021/12/20 08:27:35;;;;;;;46.08;31.00;;;;;;;-2.64;99.89;96288.25;6178237;23;20083;-62
2021/12/20 08:30:00;;;;;;;39.30;27.90;;;;;;;-2.61;99.41;96277.81;6178579;23;20080;-62
2021/12/20 08:32:26;;;;;;;38.92;28.02;;;;;;;-2.55;99.04;96278.53;6178061;23;20508;-62
2021/12/20 08:34:53;;;;;;;42.97;29.58;;;;;;;-2.53;98.91;96284.50;6178087;23;20005;-61
2021/12/20 08:37:18;;;;;;;44.22;32.75;;;;;;;-2.54;98.74;96280.22;6178444;23;20005;-61
2021/12/20 08:39:43;;;;;;;44.60;29.92;;;;;;;-2.56;99.16;96280.28;6177883;23;20489;-61
2021/12/20 08:42:09;;;;;;;56.45;41.83;;;;;;;-2.46;98.99;96280.84;6177987;23;20005;-62
2021/12/20 08:44:34;;;;;;;43.47;28.67;;;;;;;-2.45;98.85;96285.94;6177456;23;20043;-61
2021/12/20 08:47:01;;;;;;;41.22;27.67;;;;;;;-2.42;98.38;96290.16;6177395;23;20436;-62
2021/12/20 08:49:26;;;;;;;48.80;32.13;;;;;;;-2.51;98.51;96291.28;6177787;23;20471;-62
2021/12/20 08:51:54;;;;;;;41.60;26.50;;;;;;;-2.57;98.69;96293.19;6177688;23;20001;-62
2021/12/20 08:54:23;;;;;;;42.58;26.65;;;;;;;-2.59;98.85;96294.09;6177381;23;20005;-63
2021/12/20 08:56:48;;;;;;;38.65;27.67;;;;;;;-2.38;98.67;96301.25;6178373;23;20032;-61
2021/12/20 08:59:14;;;;;;;43.40;28.88;;;;;;;-2.42;98.46;96303.06;6178216;23;20102;-62
2021/12/20 09:01:40;;;;;;;45.38;31.67;;;;;;;-2.48;99.14;96295.50;6177789;23;20076;-61
2021/12/20 09:04:07;;;;;;;53.65;33.60;;;;;;;-2.42;99.29;96295.31;6177148;23;20046;-62
2021/12/20 09:06:37;;;;;;;46.85;30.65;;;;;;;-2.25;98.77;96294.78;6177072;23;20375;-63
2021/12/20 09:09:03;;;;;;;45.03;31.73;;;;;;;-2.11;98.19;96296.91;6151402;23;20474;-65
2021/12/20 09:11:28;;;;;;;40.97;28.50;;;;;;;-2.16;97.46;96298.81;6177707;23;20004;-63
2021/12/20 09:13:54;;;;;;;45.40;32.55;;;;;;;-2.14;97.75;96304.75;6149842;23;20005;-63
2021/12/20 09:16:20;;;;;;;45.72;30.75;;;;;;;-2.11;98.18;96303.81;6177461;23;20078;-62
2021/12/20 09:18:45;;;;;;;47.15;31.00;;;;;;;-2.08;97.63;96295.97;6177622;23;20016;-62
2021/12/20 09:21:11;;;;;;;44.30;29.50;;;;;;;-2.17;98.21;96299.69;6177647;23;20001;-63
2021/12/20 09:23:39;;;;;;;39.30;28.55;;;;;;;-2.04;98.42;96310.47;6177111;23;20001;-62
2021/12/20 09:26:05;;;;;;;38.40;26.48;;;;;;;-2.04;96.67;96306.16;6177954;23;20005;-66
2021/12/20 09:28:31;;;;;;;36.80;25.40;;;;;;;-2.17;97.33;96308.31;6178048;23;20009;-60
2021/12/20 09:30:57;;;;;;;37.45;27.25;;;;;;;-2.13;97.73;96310.78;6177965;23;20009;-61
2021/12/20 09:33:22;;;;;;;40.70;25.60;;;;;;;-2.20;98.02;96308.41;6176308;23;20081;-62
2021/12/20 09:35:50;;;;;;;43.42;26.70;;;;;;;-2.04;97.57;96303.59;6177317;23;20005;-63
2021/12/20 09:38:17;;;;;;;45.90;29.83;;;;;;;-2.05;97.00;96306.19;6178477;23;20007;-62
2021/12/20 09:41:12;;;;;;;40.40;26.95;;;;;;;-2.07;96.98;96306.28;6177179;23;20057;-63
2021/12/20 09:43:30;;;;;;;42.58;27.92;;;;;;;-2.06;97.46;96312.25;6175318;23;20478;-61
2021/12/20 09:45:57;;;;;;;45.67;28.75;;;;;;;-1.82;96.79;96313.22;6177381;23;20009;-60
2021/12/20 09:48:23;;;;;;;39.88;26.48;;;;;;;-1.89;96.22;96317.72;6177840;23;20024;-60
2021/12/20 09:50:49;;;;;;;37.15;25.50;;;;;;;-2.07;96.46;96314.00;6177399;23;20013;-61
2021/12/20 09:53:14;;;;;;;43.85;27.67;;;;;;;-2.12;96.85;96315.03;6176259;23;20502;-62
2021/12/20 09:55:49;;;;;;;42.75;29.65;;;;;;;-2.10;97.45;96315.84;6177927;23;20061;-62
2021/12/20 09:58:15;;;;;;;37.53;26.47;;;;;;;-1.96;97.29;96312.81;6177621;23;19997;-62
2021/12/20 10:00:41;;;;;;;40.60;27.38;;;;;;;-1.91;97.36;96313.50;6178420;23;20233;-62
2021/12/20 10:03:08;;;;;;;44.75;29.95;;;;;;;-1.96;97.16;96313.66;6175875;23;20001;-61
2021/12/20 10:05:35;;;;;;;49.50;30.90;;;;;;;-1.92;97.32;96314.38;6176384;23;20028;-62
2021/12/20 10:08:09;;;;;;;43.75;27.92;;;;;;;-1.81;96.56;96320.06;6151306;23;20020;-62
2021/12/20 10:10:45;;;;;;;48.75;32.05;;;;;;;-1.71;96.15;96322.31;6178256;23;20062;-61
2021/12/20 10:13:35;;;;;;;41.47;28.85;;;;;;;-1.85;96.75;96315.03;6177515;23;20001;-62
2021/12/20 10:16:04;;;;;;;41.08;27.50;;;;;;;-1.81;96.33;96314.91;6176643;23;20040;-62
2021/12/20 10:18:33;;;;;;;44.65;29.52;;;;;;;-1.82;95.43;96315.78;6177184;23;20001;-62
2021/12/20 10:21:01;;;;;;;43.70;29.95;;;;;;;-1.74;96.11;96308.63;6177441;23;20524;-61
2021/12/20 10:23:32;;;;;;;41.67;27.77;;;;;;;-1.68;94.80;96312.75;6175751;23;20009;-61
2021/12/20 10:25:59;;;;;;;44.95;28.55;;;;;;;-1.71;95.75;96304.25;6177772;23;20005;-61
2021/12/20 10:28:30;;;;;;;47.20;29.10;;;;;;;-1.63;95.41;96300.50;6150780;22;20009;-62
2021/12/20 10:30:59;;;;;;;43.85;28.30;;;;;;;-1.62;95.07;96291.88;6177882;23;20005;-61
2021/12/20 10:33:25;;;;;;;44.35;30.38;;;;;;;-1.56;94.88;96288.25;6176819;23;20015;-62
2021/12/20 10:35:56;;;;;;;45.33;28.90;;;;;;;-1.45;95.13;96286.13;6176792;23;20005;-62
2021/12/20 10:38:29;;;;;;;41.05;28.60;;;;;;;-1.38;95.19;96285.91;6176022;22;20005;-61
2021/12/20 10:40:56;;;;;;;44.83;30.42;;;;;;;-1.22;94.65;96283.63;6175210;23;20063;-61
2021/12/20 10:43:30;;;;;;;41.88;29.40;;;;;;;-1.27;93.90;96285.53;6150976;23;19998;-61
2021/12/20 10:45:55;;;;;;;62.15;39.75;;;;;;;-1.34;92.76;96285.72;6178236;23;20013;-62
2021/12/20 10:48:21;;;;;;;45.47;29.75;;;;;;;-1.28;93.96;96279.50;6178450;23;20448;-61
2021/12/20 10:50:47;;;;;;;41.53;26.88;;;;;;;-1.39;92.78;96273.91;6177911;23;20013;-61
2021/12/20 10:53:17;;;;;;;41.10;29.27;;;;;;;-1.50;93.13;96275.09;6178130;23;20349;-62
2021/12/20 10:55:49;;;;;;;43.85;29.25;;;;;;;-1.46;94.49;96276.69;6177490;23;20097;-60
2021/12/20 10:58:28;;;;;;;44.42;31.08;;;;;;;-1.44;94.12;96271.47;6178526;23;20001;-60
2021/12/20 11:04:02;;;;;;;46.22;29.88;;;;;;;-1.35;93.44;96285.81;6177467;23;20096;-61
2021/12/20 11:09:15;;;;;;;47.53;32.55;;;;;;;-1.36;92.92;96272.03;6177688;23;20741;-61
2021/12/20 11:11:45;;;;;;;43.88;30.35;;;;;;;-1.18;93.30;96272.28;6177171;23;20009;-62
2021/12/20 11:14:11;;;;;;;46.55;28.90;;;;;;;-1.22;92.13;96266.38;6177760;23;20499;-61
2021/12/20 11:16:41;;;;;;;46.13;32.50;;;;;;;-1.17;92.67;96269.66;6178408;23;20001;-62
2021/12/20 11:19:06;;;;;;;47.97;31.88;;;;;;;-1.12;93.02;96260.88;6151527;23;20369;-61
2021/12/20 11:21:32;;;;;;;47.35;32.00;;;;;;;-0.92;92.74;96271.31;6177909;23;19997;-62
2021/12/20 11:23:59;;;;;;;47.00;32.13;;;;;;;-0.83;92.27;96264.97;6176945;23;20085;-61
2021/12/20 11:26:27;;;;;;;44.45;30.50;;;;;;;-0.82;92.14;96264.06;6178579;23;20008;-62
2021/12/20 11:28:55;;;;;;;41.47;29.52;;;;;;;-0.82;91.73;96265.81;6177409;23;20009;-62
2021/12/20 11:31:20;;;;;;;44.65;29.98;;;;;;;-0.74;92.13;96259.44;6177567;23;20031;-62
2021/12/20 11:33:46;;;;;;;43.95;31.08;;;;;;;-0.85;92.25;96256.44;6177651;23;20429;-62